createdAt,value
2023-03-16T00:02:55.367Z,23.57
2023-03-16T00:03:55.296Z,23.57
2023-03-16T00:04:55.256Z,23.59
2023-03-16T00:05:55.218Z,23.57
2023-03-16T00:06:55.148Z,23.59
2023-03-16T00:07:55.098Z,23.56
2023-03-16T00:08:55.092Z,23.57
2023-03-16T00:09:55.037Z,23.56
2023-03-16T00:10:55.026Z,23.57
2023-03-16T00:11:54.955Z,23.57
2023-03-16T00:12:54.922Z,23.55
2023-03-16T00:13:54.885Z,23.57
2023-03-16T00:14:54.847Z,23.56
2023-03-16T00:15:54.838Z,23.57
2023-03-16T00:16:54.749Z,23.55
2023-03-16T00:17:54.708Z,23.57
2023-03-16T00:18:54.666Z,23.56
2023-03-16T00:19:54.626Z,23.55
2023-03-16T00:20:54.593Z,23.55
2023-03-16T00:21:54.555Z,23.56
2023-03-16T00:22:54.516Z,23.59
2023-03-16T00:23:54.482Z,23.57
2023-03-16T00:24:54.444Z,23.56
2023-03-16T00:25:54.431Z,23.56
2023-03-16T00:26:54.363Z,23.57
2023-03-16T00:27:54.320Z,23.56
2023-03-16T00:28:54.304Z,23.57
2023-03-16T00:29:54.242Z,23.56
2023-03-16T00:30:54.213Z,23.57
2023-03-16T00:31:54.235Z,23.57
2023-03-16T00:32:54.196Z,23.56
2023-03-16T00:33:54.102Z,23.59
2023-03-16T00:34:54.068Z,23.56
2023-03-16T00:35:54.052Z,23.57
2023-03-16T00:36:53.989Z,23.57
2023-03-16T00:37:53.982Z,23.59
2023-03-16T00:38:53.904Z,23.56
2023-03-16T00:39:53.854Z,23.57
2023-03-16T00:40:53.814Z,23.57
2023-03-16T00:41:53.790Z,23.57
2023-03-16T00:42:53.735Z,23.59
2023-03-16T00:43:53.700Z,23.56
2023-03-16T00:44:53.664Z,23.57
2023-03-16T01:11:52.602Z,23.56
2023-03-16T01:12:52.567Z,23.56
2023-03-16T01:13:52.524Z,23.56
2023-03-16T01:14:52.493Z,23.57
2023-03-16T01:15:52.452Z,23.57
2023-03-16T01:16:52.452Z,23.57
2023-03-16T01:17:52.371Z,23.55
2023-03-16T01:18:52.336Z,23.57
2023-03-16T01:19:52.288Z,23.57
2023-03-16T01:20:52.252Z,23.57
2023-03-16T01:21:52.215Z,23.56
2023-03-16T01:22:52.182Z,23.57
2023-03-16T01:23:52.139Z,23.56
2023-03-16T01:24:52.091Z,23.59
2023-03-16T01:25:52.079Z,23.56
2023-03-16T01:26:52.013Z,23.59
2023-03-16T01:27:52.034Z,23.57
2023-03-16T01:28:51.938Z,23.57
2023-03-16T01:29:51.900Z,23.55
2023-03-16T01:30:51.871Z,23.59
2023-03-16T01:31:51.810Z,23.57
2023-03-16T01:32:51.829Z,23.56
2023-03-16T01:33:51.744Z,23.57
2023-03-16T01:34:51.685Z,23.57
2023-03-16T01:35:51.658Z,23.59
2023-03-16T01:36:51.612Z,23.56
2023-03-16T01:37:51.579Z,23.57
2023-03-16T01:38:51.532Z,23.57
2023-03-16T01:39:51.502Z,23.56
2023-03-16T01:40:51.468Z,23.56
2023-03-16T01:41:51.422Z,23.56
2023-03-16T01:42:51.392Z,23.57
2023-03-16T01:43:51.353Z,23.57
2023-03-16T01:44:51.317Z,23.56
2023-03-16T01:45:51.315Z,23.59
2023-03-16T01:46:51.255Z,23.59
2023-03-16T01:47:51.207Z,23.59
2023-03-16T01:48:51.155Z,23.57
2023-03-16T01:49:51.118Z,23.59
2023-03-16T01:50:51.080Z,23.57
2023-03-16T01:51:51.041Z,23.57
2023-03-16T01:52:51.008Z,23.59
2023-03-16T01:53:50.966Z,23.56
2023-03-16T01:54:50.917Z,23.59
2023-03-16T01:55:50.874Z,23.56
2023-03-16T01:56:50.841Z,23.57
2023-03-16T01:57:50.798Z,23.56
2023-03-16T01:58:50.745Z,23.57
2023-03-16T01:59:50.722Z,23.57
2023-03-16T02:00:50.676Z,23.57
2023-03-16T02:01:50.696Z,23.56
2023-03-16T04:17:45.094Z,23.64
2023-03-16T04:18:45.055Z,23.66
2023-03-16T04:19:45.009Z,23.66
2023-03-16T04:20:44.969Z,23.66
2023-03-16T04:21:44.920Z,23.69
2023-03-16T04:22:44.865Z,23.69
2023-03-16T04:23:44.820Z,23.72
2023-03-16T04:24:44.782Z,23.67
2023-03-16T04:25:44.715Z,23.73
2023-03-16T04:26:44.664Z,23.69
2023-03-16T04:27:44.605Z,23.73
2023-03-16T04:28:44.553Z,23.72
2023-03-16T04:29:44.504Z,23.73
2023-03-16T04:30:44.476Z,23.73
2023-03-16T04:31:44.390Z,23.73
2023-03-16T04:32:44.396Z,23.77
2023-03-16T04:33:44.256Z,23.77
2023-03-16T04:34:44.190Z,23.76
2023-03-16T04:35:44.153Z,23.79
2023-03-16T04:36:44.064Z,23.79
2023-03-16T04:37:44.005Z,23.79
2023-03-16T04:38:43.940Z,23.80
2023-03-16T04:39:43.869Z,23.80
2023-03-16T04:40:43.832Z,23.80
2023-03-16T04:41:43.750Z,23.80
2023-03-16T04:42:43.680Z,23.81
2023-03-16T04:43:43.617Z,23.81
2023-03-16T04:44:43.589Z,23.83
2023-03-16T04:45:43.480Z,23.84
2023-03-16T04:46:43.471Z,23.83
2023-03-16T04:47:43.332Z,23.84
2023-03-16T04:48:43.272Z,23.87
2023-03-16T04:49:43.196Z,23.83
2023-03-16T04:50:43.129Z,23.85
2023-03-16T04:51:43.055Z,23.85
2023-03-16T04:52:42.996Z,23.87
2023-03-16T04:53:42.914Z,23.87
2023-03-16T04:54:42.841Z,23.88
2023-03-16T04:55:42.762Z,23.87
2023-03-16T04:56:42.689Z,23.85
2023-03-16T04:57:42.656Z,23.88
2023-03-16T04:58:42.539Z,23.91
2023-03-16T04:59:42.529Z,23.90
2023-03-16T05:00:42.384Z,23.90
2023-03-16T05:01:42.352Z,23.90
2023-03-16T05:02:42.259Z,23.93
2023-03-16T05:03:42.184Z,23.91
2023-03-16T05:04:42.116Z,23.91
2023-03-16T05:05:42.115Z,23.91
2023-03-16T05:06:41.968Z,23.93
2023-03-16T05:07:41.907Z,23.93
2023-03-16T05:08:41.824Z,23.93
2023-03-16T05:09:41.752Z,23.94
2023-03-16T05:10:41.661Z,23.94
2023-03-16T05:11:41.577Z,23.91
2023-03-16T05:12:41.494Z,23.94
2023-03-16T05:13:41.418Z,23.96
2023-03-16T05:14:41.338Z,23.94
2023-03-16T05:15:41.294Z,23.94
2023-03-16T05:16:41.176Z,23.93
2023-03-16T05:17:41.108Z,23.96
2023-03-16T05:18:41.032Z,23.96
2023-03-16T05:19:40.956Z,23.96
2023-03-16T05:20:40.873Z,23.94
2023-03-16T05:21:40.807Z,23.96
2023-03-16T05:22:40.733Z,23.94
2023-03-16T05:23:40.654Z,23.94
2023-03-16T07:19:32.635Z,24.04
2023-03-16T07:29:31.820Z,24.18
2023-03-16T07:30:31.889Z,24.22
2023-03-16T07:31:31.718Z,24.27
2023-03-16T07:32:31.649Z,24.28
2023-03-16T07:33:31.608Z,24.31
2023-03-16T07:34:31.570Z,24.32
2023-03-16T07:35:31.522Z,24.36
2023-03-16T07:36:31.508Z,24.35
2023-03-16T07:37:31.428Z,24.39
2023-03-16T07:38:31.365Z,24.43
2023-03-16T07:39:31.311Z,24.45
2023-03-16T07:40:31.689Z,24.49
2023-03-16T07:41:32.818Z,24.49
2023-03-16T07:42:31.169Z,24.54
2023-03-16T07:43:31.098Z,24.58
2023-03-16T07:44:31.039Z,24.58
2023-03-16T07:45:30.960Z,24.59
2023-03-16T07:46:31.023Z,24.60
2023-03-16T07:47:30.828Z,24.63
2023-03-16T07:48:30.761Z,24.65
2023-03-16T07:49:30.673Z,24.69
2023-03-16T09:11:22.037Z,24.76
2023-03-16T09:12:21.934Z,24.77
2023-03-16T09:13:21.803Z,24.76
2023-03-16T09:14:21.677Z,24.84
2023-03-16T09:15:21.584Z,24.83
2023-03-16T09:16:21.512Z,24.89
2023-03-16T09:17:21.331Z,24.91
2023-03-16T09:18:21.215Z,24.93
2023-03-16T09:19:21.108Z,24.91
2023-03-16T09:20:26.178Z,24.86
2023-03-16T09:21:21.880Z,24.80
2023-03-16T09:22:20.777Z,24.73
2023-03-16T09:23:20.658Z,24.67
2023-03-16T09:26:21.033Z,24.52
2023-03-16T10:10:15.897Z,24.82
2023-03-16T10:11:15.779Z,24.84
2023-03-16T10:12:15.672Z,24.87
2023-03-16T10:13:15.552Z,24.90
2023-03-16T10:14:15.433Z,24.98
2023-03-16T10:15:15.363Z,25.00
2023-03-16T10:16:15.255Z,25.04
2023-03-16T10:17:15.092Z,25.07
2023-03-16T10:18:14.971Z,25.07
2023-03-16T10:19:14.862Z,25.11
2023-03-16T10:20:14.745Z,25.11
2023-03-16T10:21:14.669Z,25.10
2023-03-16T10:22:14.605Z,25.10
2023-03-16T10:23:14.583Z,25.09
2023-03-16T10:24:14.492Z,25.09
2023-03-16T10:25:14.435Z,25.07
2023-03-16T10:26:14.409Z,25.06
2023-03-16T10:27:14.362Z,25.04
2023-03-16T10:28:14.303Z,25.03
2023-03-16T10:29:14.251Z,25.04
2023-03-16T10:30:14.200Z,25.02
2023-03-16T10:31:15.027Z,25.00
2023-03-16T10:32:14.101Z,24.96
2023-03-16T10:33:14.109Z,24.96
2023-03-16T10:34:13.978Z,24.93
2023-03-16T10:35:13.874Z,24.94
2023-03-16T10:36:13.816Z,24.91
2023-03-16T10:37:13.653Z,24.90
2023-03-16T10:38:14.067Z,24.90
2023-03-16T10:39:13.455Z,24.87
2023-03-16T10:40:13.361Z,24.87
2023-03-16T10:41:13.271Z,24.86
2023-03-16T10:42:13.161Z,24.84
2023-03-16T10:43:13.074Z,24.86
2023-03-16T10:44:12.950Z,24.83
2023-03-16T10:45:12.861Z,24.82
2023-03-16T10:46:14.864Z,24.83
2023-03-16T10:47:12.763Z,24.80
2023-03-16T10:48:12.567Z,24.80
2023-03-16T10:49:12.457Z,24.82
2023-03-16T10:50:12.363Z,24.80
2023-03-16T10:51:12.250Z,24.77
2023-03-16T10:52:12.154Z,24.79
2023-03-16T10:53:12.035Z,24.80
2023-03-16T10:54:11.937Z,24.83
2023-03-16T10:55:12.516Z,24.80
2023-03-16T10:56:11.777Z,24.79
2023-03-16T10:57:11.672Z,24.77
2023-03-16T10:58:11.610Z,24.77
2023-03-16T10:59:11.563Z,24.77
2023-03-16T11:00:11.474Z,24.80
2023-03-16T11:01:11.498Z,24.82
2023-03-16T11:02:11.363Z,24.84
2023-03-16T11:03:11.320Z,24.89
2023-03-16T11:04:11.298Z,24.87
2023-03-16T11:05:11.182Z,24.89
2023-03-16T11:06:11.130Z,24.91
2023-03-16T11:07:11.087Z,24.93
2023-03-16T11:08:11.580Z,24.96
2023-03-16T11:09:10.976Z,24.96
2023-03-16T11:10:10.941Z,24.96
2023-03-16T11:11:10.885Z,24.97
2023-03-16T11:12:10.845Z,24.96
2023-03-16T11:13:10.792Z,24.97
2023-03-16T11:14:10.750Z,25.00
2023-03-16T11:15:20.113Z,25.02
2023-03-16T11:16:11.598Z,25.00
2023-03-16T11:17:10.445Z,25.02
2023-03-16T11:18:10.344Z,25.03
2023-03-16T11:19:10.218Z,25.00
2023-03-16T11:20:10.118Z,25.00
2023-03-16T11:21:10.012Z,24.97
2023-03-16T11:22:09.886Z,24.97
2023-03-16T11:23:09.777Z,24.93
2023-03-16T11:24:09.671Z,24.91
2023-03-16T11:25:09.581Z,24.87
2023-03-16T11:26:09.450Z,24.89
2023-03-16T11:27:09.332Z,24.86
2023-03-16T11:28:09.260Z,24.86
2023-03-16T11:29:09.149Z,24.86
2023-03-16T11:30:09.056Z,24.84
2023-03-16T11:31:09.044Z,24.82
2023-03-16T11:32:08.873Z,24.83
2023-03-16T11:33:08.867Z,24.83
2023-03-16T11:34:08.661Z,24.83
2023-03-16T11:35:08.550Z,24.84
2023-03-16T11:36:08.480Z,24.83
2023-03-16T11:37:08.425Z,24.83
2023-03-16T11:38:08.323Z,24.86
2023-03-16T11:39:08.208Z,24.83
2023-03-16T11:40:08.097Z,24.83
2023-03-16T11:41:07.979Z,24.84
2023-03-16T11:42:07.859Z,24.86
2023-03-16T11:43:07.825Z,24.87
2023-03-16T11:44:07.807Z,24.84
2023-03-16T11:45:07.648Z,24.87
2023-03-16T11:46:07.592Z,24.83
2023-03-16T11:47:07.455Z,24.86
2023-03-16T11:48:07.378Z,24.89
2023-03-16T11:49:07.279Z,24.89
2023-03-16T11:50:07.160Z,24.90
2023-03-16T11:51:07.074Z,24.89
2023-03-16T11:52:06.961Z,24.91
2023-03-16T11:53:06.838Z,24.93
2023-03-16T11:54:06.797Z,24.96
2023-03-16T11:55:06.776Z,24.97
2023-03-16T11:56:06.691Z,24.97
2023-03-16T11:57:06.548Z,24.98
2023-03-16T11:58:06.432Z,24.98
2023-03-16T11:59:06.332Z,25.02
2023-03-16T12:00:06.192Z,25.02
2023-03-16T12:01:06.136Z,25.04
2023-03-16T12:02:06.620Z,25.04
2023-03-16T12:03:05.952Z,25.06
2023-03-16T12:04:05.813Z,25.07
2023-03-16T12:05:05.666Z,25.09
2023-03-16T12:06:17.003Z,25.07
2023-03-16T12:07:06.445Z,25.15
2023-03-16T12:08:05.322Z,25.17
2023-03-16T12:09:06.018Z,25.17
2023-03-16T12:10:05.072Z,25.21
2023-03-16T12:11:04.997Z,25.24
2023-03-16T12:12:04.843Z,25.22
2023-03-16T12:13:04.713Z,25.28
2023-03-16T12:14:04.583Z,25.27
2023-03-16T12:15:04.477Z,25.30
2023-03-16T12:17:04.349Z,25.32
2023-03-16T12:19:04.012Z,25.34
2023-03-16T12:20:03.908Z,25.37
2023-03-16T12:21:03.793Z,25.35
2023-03-16T12:22:03.674Z,25.37
2023-03-16T12:23:03.580Z,25.35
2023-03-16T12:24:03.457Z,25.38
2023-03-16T12:25:03.325Z,25.40
2023-03-16T12:26:03.201Z,25.40
2023-03-16T12:27:03.129Z,25.40
2023-03-16T12:28:03.037Z,25.40
2023-03-16T12:29:02.945Z,25.40
2023-03-16T12:30:02.856Z,25.38
2023-03-16T12:31:02.882Z,25.38
2023-03-16T12:32:02.685Z,25.37
2023-03-16T12:33:02.654Z,25.37
2023-03-16T12:34:02.513Z,25.38
2023-03-16T12:35:02.435Z,25.32
2023-03-16T12:36:02.549Z,25.34
2023-03-16T12:37:02.268Z,25.34
2023-03-16T12:38:02.266Z,25.34
2023-03-16T12:39:02.112Z,25.28
2023-03-16T12:40:02.031Z,25.27
2023-03-16T12:41:01.955Z,25.28
2023-03-16T12:42:01.886Z,25.27
2023-03-16T12:43:01.822Z,25.27
2023-03-16T12:44:01.769Z,25.25
2023-03-16T12:45:01.683Z,25.21
2023-03-16T12:46:01.666Z,25.22
2023-03-16T12:47:01.555Z,25.20
2023-03-16T12:48:01.491Z,25.21
2023-03-16T12:49:01.427Z,25.18
2023-03-16T12:50:01.357Z,25.20
2023-03-16T12:51:01.337Z,25.18
2023-03-16T12:52:01.232Z,25.18
2023-03-16T12:53:01.167Z,25.15
2023-03-16T12:54:01.102Z,25.14
2023-03-16T12:55:01.050Z,25.15
2023-03-16T12:56:00.976Z,25.15
2023-03-16T12:57:00.905Z,25.13
2023-03-16T12:58:00.848Z,25.11
2023-03-16T12:59:00.777Z,25.13
2023-03-16T13:00:01.109Z,25.07
2023-03-16T13:01:00.711Z,25.10
2023-03-16T13:57:57.782Z,24.80
2023-03-16T13:58:57.737Z,24.82
2023-03-16T13:59:57.687Z,24.80
2023-03-16T14:00:57.665Z,24.82
2023-03-16T14:01:57.592Z,24.79
2023-03-16T14:02:57.632Z,24.79
2023-03-16T14:03:57.492Z,24.82
2023-03-16T14:04:57.442Z,24.80
2023-03-16T14:05:57.398Z,24.76
2023-03-16T14:06:57.349Z,24.77
2023-03-16T14:07:57.288Z,24.77
2023-03-16T14:08:57.203Z,24.76
2023-03-16T14:09:57.130Z,24.77
2023-03-16T14:10:59.242Z,24.77
2023-03-16T14:11:56.949Z,24.77
2023-03-16T14:12:56.831Z,24.79
2023-03-16T14:13:56.717Z,24.75
2023-03-16T14:14:56.608Z,24.76
2023-03-16T14:15:56.524Z,24.75
2023-03-16T14:16:58.212Z,24.75
2023-03-16T14:17:56.247Z,24.75
2023-03-16T14:18:56.134Z,24.76
2023-03-16T14:19:56.021Z,24.76
2023-03-16T14:20:55.917Z,24.75
2023-03-16T14:21:55.782Z,24.73
2023-03-16T14:22:55.659Z,24.75
2023-03-16T14:23:55.548Z,24.76
2023-03-16T14:24:55.422Z,24.73
2023-03-16T14:25:55.321Z,24.70
2023-03-16T14:26:55.269Z,24.75
2023-03-16T14:27:55.068Z,24.73
2023-03-16T14:28:54.969Z,24.75
2023-03-16T14:29:54.863Z,24.73
2023-03-16T14:31:54.625Z,24.72
2023-03-16T14:32:54.514Z,24.70
2023-03-16T14:33:54.375Z,24.69
2023-03-16T14:34:54.259Z,24.72
2023-03-16T15:04:51.426Z,24.66
2023-03-16T15:05:51.343Z,24.69
2023-03-16T15:06:51.258Z,24.67
2023-03-16T15:07:52.967Z,24.67
2023-03-16T15:08:51.112Z,24.67
2023-03-16T15:09:51.054Z,24.69
2023-03-16T15:10:50.991Z,24.66
2023-03-16T15:11:50.932Z,24.67
2023-03-16T15:12:50.860Z,24.70
2023-03-16T15:13:50.769Z,24.67
2023-03-16T15:14:50.707Z,24.65
2023-03-16T15:15:50.660Z,24.67
2023-03-16T16:49:41.002Z,24.45
2023-03-16T16:50:40.916Z,24.45
2023-03-16T16:51:40.796Z,24.46
2023-03-16T16:52:40.714Z,24.42
2023-03-16T18:02:34.663Z,24.21
2023-03-16T18:03:34.576Z,24.18
2023-03-16T18:07:34.249Z,24.20
2023-03-16T18:08:34.164Z,24.18
2023-03-16T18:09:34.084Z,24.18
2023-03-16T18:10:34.041Z,24.17
2023-03-16T18:11:33.936Z,24.17
2023-03-16T18:12:33.854Z,24.17
2023-03-16T18:13:33.777Z,24.17
2023-03-16T18:14:33.713Z,24.14
2023-03-16T18:15:33.648Z,24.15
2023-03-16T18:16:33.633Z,24.17
2023-03-16T18:17:33.502Z,24.12
2023-03-16T18:18:33.426Z,24.14
2023-03-16T18:19:33.365Z,24.14
2023-03-16T18:20:33.923Z,24.15
2023-03-16T18:21:33.202Z,24.12
2023-03-16T18:22:33.131Z,24.12
2023-03-16T18:23:33.055Z,24.14
2023-03-16T18:24:32.979Z,24.12
2023-03-16T18:25:32.903Z,24.12
2023-03-16T18:26:32.855Z,24.11
2023-03-16T18:27:33.279Z,24.11
2023-03-16T18:28:32.710Z,24.11
2023-03-16T18:29:32.657Z,24.11
2023-03-16T18:30:32.572Z,24.10
2023-03-16T18:31:32.534Z,24.10
2023-03-16T18:32:32.458Z,24.10
2023-03-16T18:33:32.371Z,24.08
2023-03-16T18:34:32.307Z,24.07
2023-03-16T18:35:32.414Z,24.07
2023-03-16T18:36:32.161Z,24.07
2023-03-16T18:37:32.115Z,24.08
2023-03-16T18:38:32.083Z,24.07
2023-03-16T18:39:31.974Z,24.07
2023-03-16T18:40:31.935Z,24.07
2023-03-16T18:41:31.826Z,24.07
2023-03-16T18:42:31.769Z,24.07
2023-03-16T18:43:31.711Z,24.07
2023-03-16T18:44:31.634Z,24.05
2023-03-16T18:45:31.728Z,24.08
2023-03-16T18:46:31.555Z,24.05
2023-03-16T18:47:31.478Z,24.04
2023-03-16T18:48:31.397Z,24.05
2023-03-16T18:49:31.328Z,24.05
2023-03-16T18:50:31.259Z,24.03
2023-03-16T18:51:31.220Z,24.04
2023-03-16T18:52:31.153Z,24.01
2023-03-16T18:53:31.088Z,24.03
2023-03-16T18:54:31.031Z,24.03
2023-03-16T18:55:31.484Z,24.01
2023-03-16T18:56:30.920Z,24.00
2023-03-16T18:57:30.857Z,24.00
2023-03-16T18:58:30.884Z,24.00
2023-03-16T18:59:30.734Z,24.00
2023-03-16T19:00:30.689Z,24.01
2023-03-16T19:01:30.671Z,24.00
2023-03-16T20:16:26.501Z,23.90
2023-03-16T20:17:26.437Z,23.88
2023-03-16T20:18:26.390Z,23.87
2023-03-16T20:19:26.332Z,23.85
2023-03-16T20:20:26.289Z,23.87
2023-03-16T20:21:26.247Z,23.88
2023-03-16T20:22:26.225Z,23.88
2023-03-16T20:23:26.150Z,23.87
2023-03-16T20:24:26.096Z,23.88
2023-03-16T20:25:26.042Z,23.88
2023-03-16T20:26:25.992Z,23.90
2023-03-16T20:28:25.902Z,23.88
2023-03-16T20:29:25.856Z,23.87
2023-03-16T20:30:25.817Z,23.87
2023-03-16T20:31:25.771Z,23.87
2023-03-16T20:32:25.756Z,23.87
2023-03-16T20:33:25.659Z,23.87
2023-03-16T20:35:25.578Z,23.87
2023-03-16T20:36:25.509Z,23.87
2023-03-16T20:37:25.484Z,23.84
2023-03-16T20:38:25.457Z,23.84
2023-03-16T21:25:23.161Z,23.84
2023-03-16T21:26:23.104Z,23.83
2023-03-16T21:27:23.064Z,23.83
2023-03-16T21:28:23.012Z,23.83
2023-03-16T21:29:22.968Z,23.83
2023-03-16T21:30:22.938Z,23.83
2023-03-16T21:31:22.951Z,23.81
2023-03-16T21:32:22.847Z,23.84
2023-03-16T21:33:22.799Z,23.84
2023-03-16T21:34:22.757Z,23.81
2023-03-16T21:35:22.787Z,23.81
2023-03-16T21:36:22.680Z,23.81
2023-03-16T21:37:22.637Z,23.83
2023-03-16T21:38:22.592Z,23.81
2023-03-16T21:39:22.682Z,23.81
2023-03-16T21:40:22.524Z,23.81
2023-03-16T21:41:22.466Z,23.83
2023-03-16T21:42:22.530Z,23.83
2023-03-16T21:43:22.375Z,23.83
2023-03-16T21:44:22.353Z,23.83
2023-03-16T21:45:22.299Z,23.81
2023-03-16T21:46:22.393Z,23.83
2023-03-16T21:47:22.229Z,23.83
2023-03-16T21:48:22.174Z,23.83
2023-03-16T21:49:22.140Z,23.81
2023-03-16T21:50:22.096Z,23.81
2023-03-16T21:51:22.084Z,23.84
2023-03-16T21:52:22.024Z,23.81
2023-03-16T21:53:21.987Z,23.80
2023-03-16T21:54:21.934Z,23.83
2023-03-16T21:55:23.813Z,23.83
2023-03-16T21:56:21.854Z,23.83
2023-03-16T21:57:21.816Z,23.81
2023-03-16T21:58:21.775Z,23.83
2023-03-16T21:59:23.770Z,23.80
2023-03-16T22:00:21.679Z,23.81
2023-03-16T22:01:21.644Z,23.81
2023-03-16T22:02:21.664Z,23.81
2023-03-16T22:03:21.565Z,23.83
2023-03-16T22:04:21.506Z,23.83
2023-03-16T22:05:21.461Z,23.84
2023-03-16T22:06:21.426Z,23.80
2023-03-16T22:07:21.392Z,23.81
2023-03-16T22:08:21.322Z,23.80
2023-03-16T22:09:21.291Z,23.80
2023-03-16T22:10:21.234Z,23.80
2023-03-16T22:11:21.188Z,23.79
2023-03-16T22:12:21.136Z,23.77
2023-03-16T22:13:21.094Z,23.80
2023-03-16T22:14:21.048Z,23.79
2023-03-16T22:15:21.002Z,23.81
2023-03-16T22:16:20.993Z,23.77
2023-03-16T22:17:20.918Z,23.80
2023-03-16T22:18:20.870Z,23.80
2023-03-16T22:19:20.823Z,23.79
2023-03-16T22:20:20.779Z,23.79
2023-03-16T22:21:20.757Z,23.80
2023-03-16T22:22:20.679Z,23.79
2023-03-16T22:23:20.644Z,23.80
